createdAt,value
2023-07-18T00:00:34.204Z,49.50
2023-07-18T00:03:02.517Z,46.75
2023-07-18T00:05:30.783Z,50.60
2023-07-18T00:07:59.037Z,48.80
2023-07-18T00:10:28.669Z,50.40
2023-07-18T00:12:56.879Z,48.20
2023-07-18T00:15:26.197Z,44.00
2023-07-18T00:17:54.989Z,46.50
2023-07-18T00:20:24.646Z,47.50
2023-07-18T00:22:53.377Z,51.00
2023-07-18T00:25:22.157Z,36.50
2023-07-18T00:27:55.531Z,51.25
2023-07-18T00:30:24.504Z,49.50
2023-07-18T00:32:53.494Z,44.25
2023-07-18T00:35:24.589Z,49.50
2023-07-18T00:37:53.708Z,48.25
2023-07-18T00:40:22.014Z,50.75
2023-07-18T00:42:51.905Z,43.80
2023-07-18T00:45:21.859Z,48.20
2023-07-18T00:47:50.697Z,45.20
2023-07-18T00:50:19.930Z,53.00
2023-07-18T00:52:50.260Z,53.20
2023-07-18T00:55:19.274Z,51.40
2023-07-18T00:57:54.578Z,49.50
2023-07-18T01:00:24.324Z,51.20
2023-07-18T01:02:53.218Z,51.60
2023-07-18T01:05:22.203Z,52.40
2023-07-18T01:07:51.889Z,50.60
2023-07-18T01:10:24.496Z,51.25
2023-07-18T01:12:56.112Z,52.20
2023-07-18T01:15:26.549Z,51.20
2023-07-18T01:17:55.282Z,47.75
2023-07-18T01:20:24.505Z,48.25
2023-07-18T01:22:55.085Z,48.50
2023-07-18T01:25:23.723Z,45.50
2023-07-18T01:27:52.886Z,47.50
2023-07-18T01:30:22.234Z,48.25
2023-07-18T01:32:50.907Z,46.50
2023-07-18T01:35:21.097Z,48.00
2023-07-18T01:37:49.852Z,45.50
2023-07-18T01:40:21.693Z,47.00
2023-07-18T01:42:51.650Z,40.50
2023-07-18T01:45:22.016Z,42.50
2023-07-18T01:47:51.269Z,47.00
2023-07-18T01:50:20.733Z,48.75
2023-07-18T01:52:49.699Z,45.00
2023-07-18T01:55:19.690Z,43.75
2023-07-18T01:57:49.518Z,40.75
2023-07-18T02:00:21.984Z,47.75
2023-07-18T02:02:52.832Z,46.50
2023-07-18T02:05:22.582Z,47.25
2023-07-18T02:07:51.110Z,43.25
2023-07-18T02:10:22.186Z,42.00
2023-07-18T02:12:51.928Z,40.00
2023-07-18T02:15:21.751Z,44.25
2023-07-18T02:17:50.469Z,45.75
2023-07-18T02:20:19.861Z,40.25
2023-07-18T02:22:48.322Z,46.00
2023-07-18T02:25:18.748Z,43.75
2023-07-18T02:27:49.569Z,44.75
2023-07-18T02:30:18.430Z,48.50
2023-07-18T02:32:47.173Z,44.00
2023-07-18T02:35:19.544Z,43.00
2023-07-18T02:37:48.769Z,39.00
2023-07-18T02:40:19.008Z,43.50
2023-07-18T02:42:49.803Z,47.25
2023-07-18T02:45:18.114Z,39.50
2023-07-18T02:47:46.314Z,40.00
2023-07-18T02:50:15.578Z,48.25
2023-07-18T02:52:43.834Z,44.75
2023-07-18T02:55:12.141Z,44.25
2023-07-18T02:57:40.433Z,42.75
2023-07-18T03:00:20.910Z,44.25
2023-07-18T03:02:50.651Z,44.00
2023-07-18T03:05:19.426Z,40.50
2023-07-18T03:07:48.883Z,45.25
2023-07-18T03:10:17.593Z,34.00
2023-07-18T03:12:47.762Z,32.25
2023-07-18T03:15:17.863Z,34.25
2023-07-18T03:17:46.275Z,23.00
2023-07-18T03:20:20.734Z,40.00
2023-07-18T03:22:52.365Z,33.50
2023-07-18T03:25:22.214Z,36.25
2023-07-18T03:27:50.699Z,38.75
2023-07-18T03:30:20.437Z,40.75
2023-07-18T03:32:48.651Z,45.75
2023-07-18T03:35:16.893Z,41.50
2023-07-18T03:37:45.081Z,42.75
2023-07-18T03:40:17.350Z,41.00
2023-07-18T03:42:47.672Z,38.50
2023-07-18T03:45:16.831Z,41.25
2023-07-18T03:47:47.529Z,37.75
2023-07-18T03:50:17.474Z,40.75
2023-07-18T03:52:45.953Z,38.25
2023-07-18T03:55:14.146Z,39.00
2023-07-18T03:57:43.220Z,29.50
2023-07-18T04:00:15.843Z,39.75
2023-07-18T04:02:47.039Z,37.25
2023-07-18T04:05:18.962Z,41.50
2023-07-18T04:07:48.069Z,39.50
2023-07-18T04:10:16.273Z,36.50
2023-07-18T04:12:44.656Z,37.25
2023-07-18T04:15:14.045Z,34.75
2023-07-18T04:17:42.415Z,35.25
2023-07-18T04:20:11.576Z,39.00
2023-07-18T04:22:42.347Z,34.50
2023-07-18T04:25:11.057Z,34.00
2023-07-18T04:27:39.312Z,35.50
2023-07-18T04:30:08.523Z,32.50
2023-07-18T04:32:36.720Z,34.25
2023-07-18T04:35:07.877Z,30.50
2023-07-18T04:37:36.149Z,31.50
2023-07-18T04:40:07.358Z,28.00
2023-07-18T04:42:35.638Z,33.50
2023-07-18T04:45:04.051Z,27.50
2023-07-18T04:47:33.726Z,28.00
2023-07-18T04:50:01.966Z,26.50
2023-07-18T04:52:31.646Z,29.50
2023-07-18T04:54:59.801Z,25.00
2023-07-18T04:57:30.019Z,30.00
2023-07-18T04:59:58.315Z,31.50
2023-07-18T05:02:26.504Z,25.25
2023-07-18T05:04:54.869Z,30.00
2023-07-18T05:07:23.108Z,28.25
2023-07-18T05:09:53.193Z,26.75
2023-07-18T05:12:21.948Z,24.75
2023-07-18T05:14:51.597Z,30.50
2023-07-18T05:17:19.776Z,26.50
2023-07-18T05:19:48.132Z,29.25
2023-07-18T05:22:16.424Z,28.75
2023-07-18T05:24:44.675Z,29.50
2023-07-18T05:27:13.499Z,25.50
2023-07-18T05:29:41.962Z,27.75
2023-07-18T05:32:11.950Z,24.00
2023-07-18T05:34:40.257Z,29.00
2023-07-18T05:37:08.652Z,27.50
2023-07-18T05:39:36.768Z,30.00
2023-07-18T05:42:05.719Z,31.50
2023-07-18T05:44:34.042Z,27.50
2023-07-18T05:47:02.248Z,21.50
2023-07-18T05:49:32.123Z,21.00
2023-07-18T05:52:00.670Z,24.00
2023-07-18T05:54:30.370Z,19.00
2023-07-18T05:56:59.448Z,24.25
2023-07-18T05:59:29.194Z,23.50
2023-07-18T06:01:57.824Z,24.75
2023-07-18T06:04:26.068Z,23.25
2023-07-18T06:06:57.222Z,26.50
2023-07-18T06:09:25.461Z,24.50
2023-07-18T06:11:53.909Z,25.75
2023-07-18T06:14:22.358Z,24.25
2023-07-18T06:16:50.562Z,23.75
2023-07-18T06:19:18.881Z,23.00
2023-07-18T06:21:47.227Z,20.75
2023-07-18T06:24:19.478Z,21.75
2023-07-18T06:26:50.633Z,20.25
2023-07-18T06:29:19.547Z,20.50
2023-07-18T06:31:48.433Z,22.50
2023-07-18T06:34:18.731Z,21.75
2023-07-18T06:36:48.119Z,20.50
2023-07-18T06:39:19.527Z,19.50
2023-07-18T06:41:47.989Z,17.50
2023-07-18T06:44:16.767Z,19.00
2023-07-18T06:46:45.385Z,18.25
2023-07-18T06:49:14.601Z,18.75
2023-07-18T06:51:44.026Z,18.75
2023-07-18T06:54:12.498Z,17.00
2023-07-18T06:56:44.003Z,17.25
2023-07-18T06:59:12.302Z,15.75
2023-07-18T07:01:40.565Z,16.00
2023-07-18T07:04:09.260Z,16.00
2023-07-18T07:06:43.101Z,15.00
2023-07-18T07:09:14.372Z,8.60
2023-07-18T07:11:44.710Z,15.00
2023-07-18T07:14:13.889Z,11.00
2023-07-18T07:16:42.281Z,7.25
2023-07-18T07:19:10.862Z,13.50
2023-07-18T07:21:39.577Z,14.75
2023-07-18T07:24:10.854Z,11.75
2023-07-18T07:26:39.821Z,12.00
2023-07-18T07:29:10.798Z,10.50
2023-07-18T07:31:39.354Z,12.50
2023-07-18T07:34:07.893Z,15.75
2023-07-18T07:36:36.178Z,17.50
2023-07-18T07:39:04.930Z,17.25
2023-07-18T07:41:33.305Z,17.80
2023-07-18T07:44:01.528Z,14.75
2023-07-18T07:46:34.022Z,18.75
2023-07-18T07:49:05.290Z,17.50
2023-07-18T07:51:34.831Z,18.50
2023-07-18T07:54:03.237Z,16.50
2023-07-18T07:56:31.429Z,19.50
2023-07-18T07:59:10.484Z,17.50
2023-07-18T08:01:41.180Z,19.50
2023-07-18T08:04:12.690Z,19.25
2023-07-18T08:06:41.679Z,19.25
2023-07-18T08:09:10.261Z,19.50
2023-07-18T08:11:38.468Z,17.75
2023-07-18T08:14:06.774Z,13.00
2023-07-18T08:16:35.023Z,16.25
2023-07-18T08:19:04.870Z,20.00
2023-07-18T08:21:33.089Z,19.00
2023-07-18T08:24:01.625Z,18.75
2023-07-18T08:26:31.312Z,22.00
2023-07-18T08:28:59.622Z,19.75
2023-07-18T08:31:27.830Z,22.00
2023-07-18T08:33:56.078Z,21.00
2023-07-18T08:36:26.775Z,23.50
2023-07-18T08:38:55.359Z,19.75
2023-07-18T08:41:23.879Z,22.25
2023-07-18T08:43:52.244Z,18.00
2023-07-18T08:46:20.824Z,20.25
2023-07-18T08:48:58.281Z,19.75
2023-07-18T08:51:29.011Z,19.50
2023-07-18T08:53:58.551Z,14.25
2023-07-18T08:56:27.734Z,20.00
2023-07-18T08:58:56.904Z,20.00
2023-07-18T09:01:26.781Z,19.75
2023-07-18T09:03:56.357Z,18.25
2023-07-18T09:06:24.671Z,21.50
2023-07-18T09:08:56.359Z,18.50
2023-07-18T09:11:25.808Z,20.25
2023-07-18T09:13:54.151Z,18.25
2023-07-18T09:16:23.718Z,21.25
2023-07-18T09:18:52.377Z,21.50
2023-07-18T09:21:21.339Z,19.00
2023-07-18T09:23:49.871Z,19.00
2023-07-18T09:26:20.084Z,20.75
2023-07-18T09:28:48.589Z,22.00
2023-07-18T09:31:20.443Z,21.00
2023-07-18T09:33:49.495Z,21.25
2023-07-18T09:36:19.316Z,22.25
2023-07-18T09:38:48.074Z,16.75
2023-07-18T09:41:17.569Z,20.00
2023-07-18T09:43:49.028Z,23.00
2023-07-18T09:46:18.961Z,19.50
2023-07-18T09:48:50.936Z,21.00
2023-07-18T09:51:23.885Z,22.00
2023-07-18T09:53:55.020Z,22.50
2023-07-18T09:56:24.076Z,21.75
2023-07-18T09:58:54.667Z,23.75
2023-07-18T10:01:23.479Z,23.75
2023-07-18T10:03:54.185Z,21.00
2023-07-18T10:06:23.177Z,17.50
2023-07-18T10:08:51.710Z,19.75
2023-07-18T10:11:20.219Z,23.00
2023-07-18T10:14:03.886Z,24.00
2023-07-18T10:16:36.781Z,23.50
2023-07-18T10:19:18.142Z,24.75
2023-07-18T10:21:47.115Z,21.75
2023-07-18T10:24:33.309Z,20.50
2023-07-18T10:27:02.375Z,24.25
2023-07-18T10:29:34.146Z,23.25
2023-07-18T10:32:06.220Z,24.00
2023-07-18T10:34:39.549Z,25.50
2023-07-18T10:37:09.251Z,20.25
2023-07-18T10:39:40.453Z,22.75
2023-07-18T10:42:09.967Z,22.00
2023-07-18T10:44:39.457Z,24.00
2023-07-18T10:47:16.677Z,25.25
2023-07-18T10:49:46.225Z,26.50
2023-07-18T10:52:14.954Z,22.25
2023-07-18T10:54:45.324Z,24.50
2023-07-18T10:57:14.377Z,22.25
2023-07-18T10:59:43.848Z,25.25
2023-07-18T11:02:12.394Z,23.50
2023-07-18T11:04:42.336Z,25.25
2023-07-18T11:07:11.897Z,26.75
2023-07-18T11:09:43.335Z,28.00
2023-07-18T11:12:18.032Z,26.75
2023-07-18T11:14:48.580Z,23.75
2023-07-18T11:17:18.656Z,27.00
2023-07-18T11:19:49.504Z,24.00
2023-07-18T11:22:18.106Z,24.75
2023-07-18T11:24:47.399Z,25.00
2023-07-18T11:27:17.175Z,26.50
2023-07-18T11:29:51.932Z,24.75
2023-07-18T11:32:33.590Z,29.50
2023-07-18T11:35:04.026Z,27.50
2023-07-18T11:37:36.394Z,25.50
2023-07-18T11:40:11.336Z,28.50
2023-07-18T11:42:44.279Z,23.50
2023-07-18T11:45:12.730Z,31.25
2023-07-18T11:47:44.434Z,31.00
2023-07-18T11:50:14.490Z,31.50
2023-07-18T11:52:43.470Z,31.50
2023-07-18T11:55:11.992Z,27.25
2023-07-18T11:57:40.401Z,29.50
2023-07-18T12:00:10.131Z,30.75
2023-07-18T12:02:42.441Z,28.75
2023-07-18T12:05:10.896Z,30.50
2023-07-18T12:07:40.627Z,29.50
2023-07-18T12:10:11.634Z,27.50
2023-07-18T12:12:40.704Z,22.50
2023-07-18T12:15:09.833Z,21.25
2023-07-18T12:17:39.903Z,22.75
2023-07-18T12:20:09.176Z,25.00
2023-07-18T12:22:39.024Z,20.50
2023-07-18T12:25:09.688Z,13.50
2023-07-18T12:27:38.093Z,10.75
2023-07-18T12:30:07.098Z,10.50
2023-07-18T12:32:36.356Z,13.50
2023-07-18T12:35:04.849Z,12.50
2023-07-18T12:37:34.455Z,10.80
2023-07-18T12:40:02.808Z,10.60
2023-07-18T12:42:34.660Z,9.75
2023-07-18T12:45:02.931Z,12.50
2023-07-18T12:47:35.948Z,11.00
2023-07-18T12:50:09.192Z,9.00
2023-07-18T12:52:37.554Z,12.75
2023-07-18T12:55:06.747Z,9.25
2023-07-18T12:57:36.654Z,9.80
2023-07-18T13:00:06.578Z,11.00
2023-07-18T13:02:35.247Z,14.00
2023-07-18T13:05:04.051Z,11.75
2023-07-18T13:07:35.174Z,11.25
2023-07-18T13:10:03.709Z,12.75
2023-07-18T13:12:34.296Z,10.00
2023-07-18T13:15:04.306Z,13.00
2023-07-18T13:17:33.890Z,9.25
2023-07-18T13:20:02.209Z,12.75
2023-07-18T13:22:33.302Z,26.50
2023-07-18T13:25:01.626Z,26.00
2023-07-18T13:27:32.469Z,31.50
2023-07-18T13:30:00.720Z,31.50
2023-07-18T13:32:30.498Z,26.50
2023-07-18T13:34:58.818Z,25.25
2023-07-18T13:37:27.364Z,27.50
2023-07-18T13:39:55.596Z,27.50
2023-07-18T13:42:24.048Z,30.25
2023-07-18T13:44:53.239Z,26.75
2023-07-18T13:47:21.870Z,28.50
2023-07-18T13:49:53.088Z,37.75
2023-07-18T13:52:23.322Z,30.75
2023-07-18T13:54:51.707Z,28.50
2023-07-18T13:57:20.315Z,24.00
2023-07-18T13:59:48.598Z,27.00
2023-07-18T14:02:17.708Z,23.50
2023-07-18T14:04:46.423Z,22.75
2023-07-18T14:07:16.429Z,29.75
2023-07-18T14:09:44.563Z,21.25
2023-07-18T14:12:13.490Z,24.00
2023-07-18T14:14:42.314Z,22.75
2023-07-18T14:17:10.511Z,23.00
2023-07-18T14:19:38.743Z,26.50
2023-07-18T14:22:10.610Z,21.25
2023-07-18T14:24:40.276Z,23.75
2023-07-18T14:27:09.608Z,28.00
2023-07-18T14:29:37.995Z,27.00
2023-07-18T14:32:10.211Z,26.50
2023-07-18T14:34:39.056Z,29.00
2023-07-18T14:37:07.672Z,27.75
2023-07-18T14:39:39.629Z,26.75
2023-07-18T14:42:09.890Z,24.75
2023-07-18T14:44:38.316Z,25.25
2023-07-18T14:47:06.876Z,47.75
2023-07-18T14:49:35.519Z,31.00
2023-07-18T14:52:03.730Z,30.25
2023-07-18T14:54:32.045Z,33.50
2023-07-18T14:57:03.076Z,31.50
2023-07-18T14:59:33.437Z,31.50
2023-07-18T15:02:02.080Z,33.50
2023-07-18T15:04:30.405Z,31.50
2023-07-18T15:06:59.169Z,25.50
2023-07-18T15:09:27.531Z,28.50
2023-07-18T15:11:55.753Z,31.50
2023-07-18T15:14:24.058Z,29.75
2023-07-18T15:16:53.859Z,27.50
2023-07-18T15:19:22.204Z,30.75
2023-07-18T15:21:50.510Z,29.75
2023-07-18T15:24:18.881Z,31.25
2023-07-18T15:26:47.439Z,23.00
2023-07-18T15:29:15.675Z,32.50
2023-07-18T15:31:44.695Z,32.75
2023-07-18T15:34:14.476Z,30.00
2023-07-18T15:36:45.360Z,31.25
2023-07-18T15:39:13.746Z,33.00
2023-07-18T15:41:42.247Z,38.25
2023-07-18T15:44:10.610Z,36.00
2023-07-18T15:46:39.570Z,35.75
2023-07-18T15:49:08.266Z,36.25
2023-07-18T15:51:38.033Z,34.50
2023-07-18T15:54:06.471Z,34.75
2023-07-18T15:56:34.717Z,30.50
2023-07-18T15:59:03.381Z,34.25
2023-07-18T16:01:31.703Z,25.50
2023-07-18T16:04:00.192Z,32.00
2023-07-18T16:06:28.710Z,34.00
2023-07-18T16:08:59.196Z,33.25
2023-07-18T16:11:27.423Z,34.75
2023-07-18T16:13:55.869Z,36.00
2023-07-18T16:16:25.492Z,32.75
2023-07-18T16:18:54.547Z,33.00
2023-07-18T16:21:23.319Z,32.75
2023-07-18T16:23:51.855Z,31.00
2023-07-18T16:26:22.439Z,27.75
2023-07-18T16:28:51.305Z,26.00
2023-07-18T16:31:20.864Z,25.00
2023-07-18T16:33:49.285Z,36.75
2023-07-18T16:36:18.004Z,32.50
2023-07-18T16:38:48.904Z,39.25
2023-07-18T16:41:17.121Z,38.50
2023-07-18T16:43:46.923Z,36.50
2023-07-18T16:46:15.583Z,35.50
2023-07-18T16:48:44.027Z,35.25
2023-07-18T16:51:14.509Z,39.00
2023-07-18T16:53:43.112Z,45.25
2023-07-18T16:56:13.045Z,41.25
2023-07-18T16:58:43.118Z,34.50
2023-07-18T17:01:16.388Z,25.25
2023-07-18T17:03:45.096Z,31.50
2023-07-18T17:06:13.737Z,32.25
2023-07-18T17:08:44.702Z,27.00
2023-07-18T17:11:14.395Z,30.00
2023-07-18T17:13:43.348Z,33.25
2023-07-18T17:16:12.850Z,16.25
2023-07-18T17:18:42.604Z,35.50
2023-07-18T17:21:12.646Z,34.75
2023-07-18T17:23:41.029Z,35.50
2023-07-18T17:26:10.331Z,34.50
2023-07-18T17:28:38.763Z,31.50
2023-07-18T17:31:07.154Z,39.00
2023-07-18T17:33:35.592Z,39.25
2023-07-18T17:36:06.244Z,33.75
2023-07-18T17:38:46.986Z,31.50
2023-07-18T17:41:18.247Z,38.00
2023-07-18T17:43:49.226Z,32.50
2023-07-18T17:46:17.727Z,29.50
2023-07-18T17:48:46.835Z,30.25
2023-07-18T17:51:17.022Z,25.25
2023-07-18T17:53:45.757Z,30.25
2023-07-18T17:56:14.094Z,26.50
2023-07-18T17:58:43.103Z,38.00
2023-07-18T18:01:11.361Z,29.75
2023-07-18T18:03:40.713Z,27.25
2023-07-18T18:06:09.912Z,27.25
2023-07-18T18:08:39.656Z,26.75
2023-07-18T18:11:08.123Z,26.50
2023-07-18T18:13:36.531Z,28.00
2023-07-18T18:16:08.757Z,28.25
2023-07-18T18:18:38.501Z,27.50
2023-07-18T18:21:09.391Z,30.50
2023-07-18T18:23:40.913Z,24.50
2023-07-18T18:26:11.369Z,21.75
2023-07-18T18:28:40.194Z,22.50
2023-07-18T18:31:08.768Z,25.00
2023-07-18T18:33:37.306Z,23.75
2023-07-18T18:36:05.928Z,20.50
2023-07-18T18:38:34.333Z,24.75
2023-07-18T18:41:04.600Z,21.50
2023-07-18T18:43:34.895Z,28.25
2023-07-18T18:46:09.771Z,19.75
2023-07-18T18:48:38.506Z,25.00
2023-07-18T18:51:06.795Z,32.50
2023-07-18T18:53:35.264Z,20.00
2023-07-18T18:56:05.439Z,20.75
2023-07-18T18:58:35.187Z,18.50
2023-07-18T19:01:03.436Z,17.75
2023-07-18T19:03:32.759Z,19.25
2023-07-18T19:06:01.527Z,18.75
2023-07-18T19:08:30.009Z,17.75
2023-07-18T19:11:07.154Z,18.50
2023-07-18T19:13:38.233Z,16.50
2023-07-18T19:16:07.998Z,19.00
2023-07-18T19:18:37.099Z,13.50
2023-07-18T19:21:05.668Z,16.25
2023-07-18T19:23:34.009Z,17.50
2023-07-18T19:26:02.235Z,17.00
2023-07-18T19:28:30.480Z,24.50
2023-07-18T19:31:00.281Z,18.25
2023-07-18T19:33:28.625Z,18.00
2023-07-18T19:35:56.924Z,16.00
2023-07-18T19:38:25.323Z,16.00
2023-07-18T19:40:53.748Z,19.00
2023-07-18T19:43:22.071Z,21.25
2023-07-18T19:45:50.575Z,18.00
2023-07-18T19:48:21.200Z,15.75
2023-07-18T19:50:50.056Z,18.00
2023-07-18T19:53:19.052Z,18.25
2023-07-18T19:55:49.062Z,19.00
2023-07-18T19:58:17.359Z,19.75
2023-07-18T20:00:45.911Z,21.00
2023-07-18T20:03:14.397Z,21.75
2023-07-18T20:05:44.876Z,21.25
2023-07-18T20:08:13.267Z,19.50
2023-07-18T20:10:41.637Z,21.75
2023-07-18T20:13:10.395Z,17.50
2023-07-18T20:15:38.672Z,23.50
2023-07-18T20:18:07.104Z,17.50
2023-07-18T20:20:35.325Z,16.50
2023-07-18T20:23:05.273Z,15.50
2023-07-18T20:25:33.575Z,11.50
2023-07-18T20:28:02.094Z,9.00
2023-07-18T20:30:30.525Z,9.00
2023-07-18T20:32:59.881Z,8.00
2023-07-18T20:35:28.607Z,8.75
2023-07-18T20:37:57.062Z,10.00
2023-07-18T20:40:26.744Z,8.50
2023-07-18T20:42:55.113Z,5.50
2023-07-18T20:45:25.256Z,8.00
2023-07-18T20:47:53.572Z,9.00
2023-07-18T20:50:22.303Z,10.25
2023-07-18T20:52:50.687Z,7.50
2023-07-18T20:55:18.973Z,8.50
2023-07-18T20:57:50.999Z,7.50
2023-07-18T21:00:19.360Z,10.75
2023-07-18T21:02:47.807Z,9.75
2023-07-18T21:05:16.746Z,6.75
2023-07-18T21:07:45.168Z,7.60
2023-07-18T21:10:13.456Z,3.00
2023-07-18T21:12:44.189Z,4.50
2023-07-18T21:15:16.152Z,3.40
2023-07-18T21:17:44.498Z,4.25
2023-07-18T21:20:12.983Z,4.00
2023-07-18T21:22:41.274Z,3.00
2023-07-18T21:25:10.093Z,3.60
2023-07-18T21:27:38.281Z,4.50
2023-07-18T21:30:09.140Z,3.00
2023-07-18T21:32:38.939Z,2.80
2023-07-18T21:35:07.780Z,3.75
2023-07-18T21:37:35.987Z,3.00
2023-07-18T21:40:04.326Z,4.00
2023-07-18T21:42:32.818Z,3.00
2023-07-18T21:45:01.182Z,3.20
2023-07-18T21:47:29.579Z,3.00
2023-07-18T21:49:59.239Z,3.25
2023-07-18T21:52:27.917Z,4.75
2023-07-18T21:54:56.651Z,6.40
2023-07-18T21:57:24.933Z,3.25
2023-07-18T21:59:53.431Z,3.00
2023-07-18T22:02:22.250Z,3.25
2023-07-18T22:04:50.488Z,1.00
2023-07-18T22:07:20.096Z,3.00
2023-07-18T22:09:48.443Z,1.25
2023-07-18T22:12:16.745Z,1.60
2023-07-18T22:14:45.143Z,1.00
2023-07-18T22:17:13.347Z,1.00
2023-07-18T22:19:41.775Z,1.00
2023-07-18T22:22:10.074Z,1.75
2023-07-18T22:24:40.566Z,1.00
2023-07-18T22:27:08.869Z,1.60
2023-07-18T22:29:37.356Z,2.00
2023-07-18T22:32:06.089Z,1.00
2023-07-18T22:34:34.494Z,1.40
2023-07-18T22:37:02.950Z,7.60
2023-07-18T22:39:36.445Z,3.20
2023-07-18T22:42:17.421Z,8.00
2023-07-18T22:44:46.107Z,5.20
2023-07-18T22:47:14.636Z,5.00
2023-07-18T22:49:43.002Z,2.00
2023-07-18T22:52:13.668Z,2.50
2023-07-18T22:54:42.053Z,3.75
2023-07-18T22:57:10.225Z,4.75
2023-07-18T22:59:41.598Z,4.00
2023-07-18T23:02:10.209Z,5.50
2023-07-18T23:04:38.426Z,3.00
2023-07-18T23:07:07.143Z,5.25
2023-07-18T23:09:35.469Z,5.75
2023-07-18T23:12:04.097Z,4.00
2023-07-18T23:14:32.337Z,4.00
2023-07-18T23:17:02.079Z,3.00
2023-07-18T23:19:30.547Z,4.20
2023-07-18T23:21:58.719Z,3.50
2023-07-18T23:24:26.910Z,3.00
2023-07-18T23:26:55.200Z,5.50
2023-07-18T23:29:23.315Z,4.50
2023-07-18T23:31:51.617Z,4.75
2023-07-18T23:34:21.276Z,8.50
2023-07-18T23:36:49.480Z,4.50
2023-07-18T23:39:17.922Z,6.50
2023-07-18T23:41:46.203Z,3.50
2023-07-18T23:44:14.432Z,5.00
2023-07-18T23:46:42.665Z,4.00
2023-07-18T23:49:10.942Z,5.25
2023-07-18T23:51:40.899Z,4.60
2023-07-18T23:54:09.377Z,2.00
2023-07-18T23:56:37.534Z,5.00
2023-07-18T23:59:05.760Z,4.00
